Hundvaag 1 weather for Sep 2003
Month no. 195
Obs.
Da.
Temp. Dew Point Precip. Wind
Speed
Wind gusts Cloud cover Press. Humidity Wind dir. Sunny OPT
01.09.2003 8,6   0,0 7,0   9 1014,0 93,0   1 82,5 %
02.09.2003 10,8   0,0 3,0   0 1018,6 87,0 135,0 1 65,0 %
03.09.2003 12,6   2,7 14,0   0 1019,3 82,0 157,5   60,0 %
04.09.2003 13,7   1,3 7,0   0 1020,7 94,0 157,5   65,0 %
05.09.2003 10,9   0,0 6,0   9 1019,2 100,0 135,0 1 85,0 %
06.09.2003 15,0   0,0 14,0   2 1015,4 68,0 135,0 1 67,5 %
07.09.2003 15,4   29,8 15,0   2 1010,7 88,0 180,0 1 42,5 %
08.09.2003 12,9   0,0 2,0   2 1011,9 88,0     72,5 %
09.09.2003 13,3   23,3 6,0   0 1010,7 94,0 202,5   47,5 %
10.09.2003 12,4   14,7 7,0   1 1011,9 94,0 135,0   55,0 %
11.09.2003 9,1   2,2 3,0   10 1014,9 100,0   1 87,5 %
12.09.2003 13,7   0,9 7,0   0 1015,7 88,0 157,5 1 65,0 %
13.09.2003 12,1   6,9 6,0   3 1022,2 88,0 135,0 1 65,0 %
14.09.2003 15,7   0,0 18,0   0 1018,0 82,0 180,0   60,0 %
15.09.2003 15,0   0,6 7,0   0 1017,2 94,0 225,0   67,5 %
16.09.2003 13,6   0,1 1,0   0 1015,9 88,0     67,5 %
17.09.2003 12,2   0,1 6,0   0 1016,0 94,0 135,0 1 62,5 %
18.09.2003 15,8   2,4 12,0   0 1009,9 88,0 180,0   62,5 %
19.09.2003 12,8   10,9 7,0   0 1009,5 94,0 90,0   57,5 %
20.09.2003 7,9   2,6 0,0   2 1019,2 96,0 0,0 1 67,5 %
21.09.2003 10,7   16,0 0,0   2 1010,4 97,0 0,0 1 57,5 %
22.09.2003 14,9   10,0 15,0   0 1004,5 94,0 202,5   50,0 %
23.09.2003 8,7   30,4 25,0   1 1002,4 62,0 315,0   25,0 %
24.09.2003 5,5   2,5 1,0   5 1018,5 81,0 225,0 1 72,5 %
25.09.2003 12,7   13,6 9,0   0 1017,0 94,0 225,0   52,5 %
26.09.2003 11,8   0,5 15,0   0 1011,9 77,0 180,0   55,0 %
27.09.2003 9,4   20,8 15,0   4 1014,5 66,0 0,0   47,5 %
28.09.2003 11,3   0,0 5,0   4 1013,6 76,0 180,0 1 72,5 %
29.09.2003 6,6   0,0 7,0   2 1012,6 87,0 112,5 1 62,5 %
30.09.2003 11,1   3,0 14,0   0 1011,5 88,0 157,5   55,0 %
                       
Avrg/Sum 11,9   195,3 8,5   1,9 1014,3 87,4 151,4 14 61,8 %